THA222 EKCH-LIME
Flight info
| Callsign | THA222 |
|---|---|
| Flight time | N/A |
| Altitude | 40000 |
| Route | EKCH/22L NEXEN T503 GIMRU DCT KUXOD N850 MICOS DCT SAS DCT OTMON DCT BOMBI DCT GIGET DCT ABUKA/N0488F410 DCT BATUB M738 NATAG DCT LORLO DCT ATPED/N0358F190 M984 LUSIL T772 EKLIB |
| Aircraft | A388/J-SADE2E3FGHIJ3J4J5M1RWXY/LB1D1 |
Departure
| Time | 2026-04-21 21:48 |
|---|---|
| Airport | Copenhagen Kastrup Airport (EKCH) |
Arrival
| Time | N/A |
|---|---|
| Airport | Il Caravaggio International Airport (LIME) |
| Time | Latitude | Longitude | Altitude | Speed | Heading |
|---|---|---|---|---|---|
| 2026-04-21 21:25 | 55.62428 | 12.65072 | 29 ft | 0 kts | 260° |
| 2026-04-21 21:33 | 55.62430 | 12.65089 | 31 ft | 2 kts | 261° |
| 2026-04-21 21:33 | 55.62433 | 12.65131 | 27 ft | 4 kts | 255° |
| 2026-04-21 21:34 | 55.62448 | 12.65165 | 31 ft | 4 kts | 219° |
| 2026-04-21 21:34 | 55.62466 | 12.65180 | 29 ft | 2 kts | 199° |
| 2026-04-21 21:34 | 55.62478 | 12.65183 | 29 ft | 0 kts | 185° |
| 2026-04-21 21:40 | 55.62434 | 12.65183 | 26 ft | 13 kts | 176° |
| 2026-04-21 21:41 | 55.62376 | 12.65231 | 29 ft | 5 kts | 94° |
| 2026-04-21 21:41 | 55.62400 | 12.65321 | 27 ft | 11 kts | 58° |
| 2026-04-21 21:41 | 55.62433 | 12.65451 | 26 ft | 12 kts | 76° |
| 2026-04-21 21:41 | 55.62447 | 12.65579 | 27 ft | 11 kts | 81° |
| 2026-04-21 21:42 | 55.62454 | 12.65721 | 22 ft | 12 kts | 88° |
| 2026-04-21 21:42 | 55.62457 | 12.65879 | 23 ft | 13 kts | 89° |
| 2026-04-21 21:42 | 55.62469 | 12.66020 | 24 ft | 10 kts | 62° |
| 2026-04-21 21:42 | 55.62502 | 12.66110 | 27 ft | 8 kts | 68° |
| 2026-04-21 21:43 | 55.62504 | 12.66192 | 22 ft | 7 kts | 92° |
| 2026-04-21 21:43 | 55.62513 | 12.66273 | 23 ft | 6 kts | 59° |
| 2026-04-21 21:43 | 55.62535 | 12.66323 | 24 ft | 4 kts | 46° |
| 2026-04-21 21:43 | 55.62567 | 12.66379 | 27 ft | 9 kts | 44° |
| 2026-04-21 21:44 | 55.62614 | 12.66482 | 21 ft | 13 kts | 69° |
| 2026-04-21 21:44 | 55.62620 | 12.66524 | 22 ft | 0 kts | 89° |
| 2026-04-21 21:46 | 55.62619 | 12.66548 | 22 ft | 5 kts | 100° |
| 2026-04-21 21:46 | 55.62594 | 12.66646 | 18 ft | 11 kts | 129° |
| 2026-04-21 21:47 | 55.62543 | 12.66702 | 24 ft | 5 kts | 177° |
| 2026-04-21 21:47 | 55.62511 | 12.66691 | 25 ft | 5 kts | 201° |
| 2026-04-21 21:47 | 55.62482 | 12.66660 | 26 ft | 5 kts | 219° |
| 2026-04-21 21:47 | 55.62445 | 12.66606 | 29 ft | 20 kts | 220° |
| 2026-04-21 21:48 | 55.62093 | 12.66064 | 23 ft | 113 kts | 222° |
| 2026-04-21 21:48 | 55.61333 | 12.64879 | 27 ft | 172 kts | 221° |
| 2026-04-21 21:48 | 55.60375 | 12.63405 | 374 ft | 187 kts | 223° |
| 2026-04-21 21:48 | 55.59366 | 12.61862 | 843 ft | 197 kts | 222° |
| 2026-04-21 21:49 | 55.58250 | 12.60234 | 1397 ft | 214 kts | 224° |
| 2026-04-21 21:49 | 55.57107 | 12.58445 | 2064 ft | 228 kts | 225° |
| 2026-04-21 21:49 | 55.55874 | 12.56486 | 2400 ft | 248 kts | 222° |
| 2026-04-21 21:49 | 55.54442 | 12.54568 | 2716 ft | 266 kts | 217° |
| 2026-04-21 21:50 | 55.52896 | 12.52702 | 3257 ft | 271 kts | 216° |
| 2026-04-21 21:50 | 55.51328 | 12.50824 | 3864 ft | 273 kts | 216° |
| 2026-04-21 21:50 | 55.49753 | 12.48903 | 4416 ft | 277 kts | 215° |
| 2026-04-21 21:50 | 55.48169 | 12.46939 | 5023 ft | 280 kts | 215° |
| 2026-04-21 21:51 | 55.46571 | 12.44943 | 5581 ft | 282 kts | 215° |
| 2026-04-21 21:51 | 55.44970 | 12.42938 | 6223 ft | 282 kts | 215° |
| 2026-04-21 21:51 | 55.43363 | 12.40925 | 6843 ft | 283 kts | 214° |
| 2026-04-21 21:51 | 55.41745 | 12.38901 | 7368 ft | 288 kts | 214° |
| 2026-04-21 21:52 | 55.40107 | 12.36854 | 8082 ft | 291 kts | 215° |
| 2026-04-21 21:52 | 55.38443 | 12.34777 | 8868 ft | 295 kts | 215° |
| 2026-04-21 21:52 | 55.36776 | 12.32697 | 9631 ft | 299 kts | 215° |